Time;durP1;ratioP1;P1;durP2;ratioP2;P2;SDS_P1;SDS_P2;PMS_P1;PMS_P2;Temp;Humidity;BMP_temperature;BMP_pressure;BME280_temperature;BME280_humidity;BME280_pressure;Samples;Min_cycle;Max_cycle;Signal;HPM_P1;HPM_P2
2023/07/20 00:02:02;;;;;;;;;;;16.60;99.60;;;;;;5142256;27;19976;-61
2023/07/20 00:04:28;;;;;;;;;;;16.60;99.10;;;;;;5141961;27;19911;-61
2023/07/20 00:06:54;;;;;;;;;;;16.50;99.70;;;;;;5142287;27;19911;-61
2023/07/20 00:09:21;;;;;;;;;;;16.60;99.90;;;;;;5141823;27;19907;-61
2023/07/20 00:11:53;;;;;;;;;;;16.60;99.90;;;;;;5142286;27;19918;-61
2023/07/20 00:14:19;;;;;;;;;;;16.50;99.90;;;;;;5141656;27;19907;-61
2023/07/20 00:16:46;;;;;;;;;;;16.50;99.90;;;;;;5141896;27;19919;-61
2023/07/20 00:19:16;;;;;;;;;;;16.50;99.90;;;;;;5141502;27;20006;-60
2023/07/20 00:21:42;;;;;;;;;;;16.50;99.90;;;;;;5141484;27;20350;-61
2023/07/20 00:24:08;;;;;;;;;;;16.50;99.90;;;;;;5141702;27;19908;-61
2023/07/20 00:26:34;;;;;;;;;;;16.50;99.90;;;;;;5141748;27;19922;-61
2023/07/20 00:28:59;;;;;;;;;;;16.50;99.90;;;;;;5141312;27;19908;-61
2023/07/20 00:31:26;;;;;;;;;;;16.50;99.90;;;;;;5141687;27;19943;-61
2023/07/20 00:33:52;;;;;;;;;;;16.40;99.90;;;;;;5141402;27;19914;-61
2023/07/20 00:36:18;;;;;;;;;;;16.40;99.90;;;;;;5141514;27;19926;-61
2023/07/20 00:38:43;;;;;;;;;;;16.40;99.90;;;;;;5141080;27;20382;-61
2023/07/20 00:41:09;;;;;;;;;;;16.40;99.90;;;;;;5141456;27;20006;-61
2023/07/20 00:43:35;;;;;;;;;;;16.40;99.90;;;;;;5141510;27;19908;-61
2023/07/20 00:46:02;;;;;;;;;;;16.30;99.90;;;;;;5141250;27;19911;-61
2023/07/20 00:48:29;;;;;;;;;;;16.30;99.90;;;;;;5140930;27;19945;-60
2023/07/20 00:50:55;;;;;;;;;;;16.20;99.90;;;;;;5141106;27;19918;-61
2023/07/20 00:53:21;;;;;;;;;;;16.10;99.90;;;;;;5140974;27;19915;-61
2023/07/20 00:55:47;;;;;;;;;;;16.10;99.90;;;;;;5141224;27;19911;-61
2023/07/20 00:58:12;;;;;;;;;;;16.10;99.90;;;;;;5140911;27;19907;-61
2023/07/20 01:00:38;;;;;;;;;;;16.00;99.90;;;;;;5141351;27;19908;-61
2023/07/20 01:03:04;;;;;;;;;;;16.00;99.90;;;;;;5140793;27;19918;-61
2023/07/20 01:05:41;;;;;;;;;;;16.00;99.90;;;;;;5141150;27;20010;-61
2023/07/20 01:08:10;;;;;;;;;;;16.00;99.90;;;;;;5140416;27;19976;-61
2023/07/20 01:10:55;;;;;;;;;;;16.00;99.90;;;;;;5140388;27;19996;-61
2023/07/20 01:13:21;;;;;;;;;;;16.00;99.90;;;;;;5140866;27;20298;-61
2023/07/20 01:15:51;;;;;;;;;;;15.90;99.90;;;;;;5140313;27;19964;-61
2023/07/20 01:18:17;;;;;;;;;;;15.90;99.90;;;;;;5140403;27;19970;-61
2023/07/20 01:20:43;;;;;;;;;;;15.90;99.90;;;;;;5140306;27;19942;-61
2023/07/20 01:23:21;;;;;;;;;;;15.80;99.90;;;;;;5140447;27;19908;-61
2023/07/20 01:25:53;;;;;;;;;;;15.80;99.90;;;;;;5140109;27;19922;-61
2023/07/20 01:28:19;;;;;;;;;;;15.70;99.90;;;;;;5140412;27;20348;-61
2023/07/20 01:31:11;;;;;;;;;;;15.70;99.90;;;;;;5140283;27;19946;-61
2023/07/20 01:33:37;;;;;;;;;;;15.70;99.90;;;;;;5135010;27;20446;-61
2023/07/20 01:36:03;;;;;;;;;;;15.70;99.90;;;;;;5140471;27;19951;-61
2023/07/20 01:38:29;;;;;;;;;;;15.60;99.90;;;;;;5140104;27;19953;-61
2023/07/20 01:40:55;;;;;;;;;;;15.60;99.90;;;;;;5140142;27;19911;-61
2023/07/20 01:43:21;;;;;;;;;;;15.60;99.90;;;;;;5139916;27;19922;-61
2023/07/20 01:45:47;;;;;;;;;;;15.60;99.90;;;;;;5140249;27;20393;-61
2023/07/20 01:48:12;;;;;;;;;;;15.60;99.90;;;;;;5140157;27;20491;-61
2023/07/20 01:50:38;;;;;;;;;;;15.50;99.90;;;;;;5140126;27;19914;-61
2023/07/20 01:53:04;;;;;;;;;;;15.40;99.90;;;;;;5139849;27;20098;-61
2023/07/20 01:55:29;;;;;;;;;;;15.40;99.90;;;;;;5139536;27;19929;-61
2023/07/20 01:57:55;;;;;;;;;;;15.40;99.90;;;;;;5139682;27;19907;-61
2023/07/20 02:00:23;;;;;;;;;;;15.40;99.90;;;;;;5140212;27;19907;-61
2023/07/20 02:02:50;;;;;;;;;;;15.40;99.90;;;;;;5139835;27;20010;-61
2023/07/20 02:05:15;;;;;;;;;;;15.40;99.90;;;;;;5139729;27;20359;-61
2023/07/20 02:07:41;;;;;;;;;;;15.40;99.90;;;;;;5139974;27;20007;-61
2023/07/20 02:10:07;;;;;;;;;;;15.40;99.90;;;;;;5139937;27;19907;-61
2023/07/20 02:12:33;;;;;;;;;;;15.40;99.90;;;;;;5139557;27;19911;-61
2023/07/20 02:14:58;;;;;;;;;;;15.40;99.90;;;;;;5139530;27;19914;-61
2023/07/20 02:17:24;;;;;;;;;;;15.40;99.90;;;;;;5139412;27;19911;-61
2023/07/20 02:19:53;;;;;;;;;;;15.30;99.90;;;;;;5139087;27;19998;-61
2023/07/20 02:22:19;;;;;;;;;;;15.30;99.90;;;;;;5139509;27;19911;-61
2023/07/20 02:24:44;;;;;;;;;;;15.30;99.90;;;;;;5138969;27;19965;-61
2023/07/20 02:27:10;;;;;;;;;;;15.30;99.90;;;;;;5139190;27;19907;-61
2023/07/20 02:29:36;;;;;;;;;;;15.30;99.90;;;;;;5139630;27;19907;-61
2023/07/20 02:32:01;;;;;;;;;;;15.20;99.90;;;;;;5139363;27;19915;-61
2023/07/20 02:34:27;;;;;;;;;;;15.20;99.90;;;;;;5139475;27;19948;-61
2023/07/20 02:36:56;;;;;;;;;;;15.20;99.90;;;;;;5139256;27;19907;-61
2023/07/20 02:39:21;;;;;;;;;;;15.20;99.90;;;;;;5138966;27;19907;-61
2023/07/20 02:41:47;;;;;;;;;;;15.20;99.90;;;;;;5139490;27;20324;-61
2023/07/20 02:44:13;;;;;;;;;;;15.30;99.90;;;;;;5138902;27;20326;-61
2023/07/20 02:46:42;;;;;;;;;;;15.30;99.90;;;;;;5139185;27;19929;-61
2023/07/20 02:49:08;;;;;;;;;;;15.30;99.90;;;;;;5139120;27;19908;-61
2023/07/20 02:51:33;;;;;;;;;;;15.20;99.90;;;;;;5139181;27;19908;-61
2023/07/20 02:53:59;;;;;;;;;;;15.20;99.90;;;;;;5138768;27;19908;-61
2023/07/20 02:56:25;;;;;;;;;;;15.20;99.90;;;;;;5139162;27;20041;-61
2023/07/20 02:58:50;;;;;;;;;;;15.20;99.90;;;;;;5139177;28;20393;-61
2023/07/20 03:01:16;;;;;;;;;;;15.20;99.90;;;;;;5139084;28;19947;-61
2023/07/20 03:03:46;;;;;;;;;;;15.20;99.90;;;;;;5139016;28;19933;-61
2023/07/20 03:06:14;;;;;;;;;;;15.20;99.90;;;;;;5138596;28;19911;-61
2023/07/20 03:08:41;;;;;;;;;;;15.20;99.90;;;;;;5138979;28;19914;-61
2023/07/20 03:11:07;;;;;;;;;;;15.10;99.90;;;;;;5138770;28;19908;-61
2023/07/20 03:13:32;;;;;;;;;;;15.20;99.90;;;;;;5138819;28;19943;-61
2023/07/20 03:15:58;;;;;;;;;;;15.10;99.90;;;;;;5138687;28;19908;-61
2023/07/20 03:18:23;;;;;;;;;;;15.20;99.90;;;;;;5138579;28;20005;-61
2023/07/20 03:20:49;;;;;;;;;;;15.20;99.90;;;;;;5138888;28;19915;-61
2023/07/20 03:23:16;;;;;;;;;;;15.20;99.90;;;;;;5138454;28;19914;-61
2023/07/20 03:25:41;;;;;;;;;;;15.20;99.90;;;;;;5138427;28;19974;-61
2023/07/20 03:28:07;;;;;;;;;;;15.20;99.90;;;;;;5138844;28;19994;-61
2023/07/20 03:30:33;;;;;;;;;;;15.30;99.90;;;;;;5138644;28;20384;-61
2023/07/20 03:32:59;;;;;;;;;;;15.30;99.90;;;;;;5141256;27;19908;-61
2023/07/20 03:35:24;;;;;;;;;;;15.30;99.90;;;;;;5142756;27;19912;-61
2023/07/20 03:37:50;;;;;;;;;;;15.30;99.90;;;;;;5142910;27;19908;-61
2023/07/20 03:40:16;;;;;;;;;;;15.30;99.90;;;;;;5142447;27;19907;-61
2023/07/20 03:42:42;;;;;;;;;;;15.30;99.90;;;;;;5142229;27;20324;-61
2023/07/20 03:45:07;;;;;;;;;;;15.30;99.90;;;;;;5142336;27;19911;-61
2023/07/20 03:47:33;;;;;;;;;;;15.30;99.90;;;;;;5142856;27;19908;-61
2023/07/20 03:49:59;;;;;;;;;;;15.30;99.90;;;;;;5142500;27;20376;-61
2023/07/20 03:52:24;;;;;;;;;;;15.30;99.90;;;;;;5142637;27;19911;-61
2023/07/20 03:54:52;;;;;;;;;;;15.30;99.90;;;;;;5142182;27;19932;-61
2023/07/20 03:57:18;;;;;;;;;;;15.30;99.90;;;;;;5142444;27;19907;-61
2023/07/20 03:59:48;;;;;;;;;;;15.30;99.90;;;;;;5142147;27;19953;-61
2023/07/20 04:02:13;;;;;;;;;;;15.30;99.90;;;;;;5142344;27;19907;-61
2023/07/20 04:04:39;;;;;;;;;;;15.30;99.90;;;;;;5142308;27;19964;-61
2023/07/20 04:07:04;;;;;;;;;;;15.30;99.90;;;;;;5142259;27;19912;-61
2023/07/20 04:09:31;;;;;;;;;;;15.30;99.90;;;;;;5142224;27;20254;-61
2023/07/20 04:11:57;;;;;;;;;;;15.30;99.90;;;;;;5142271;27;19987;-61
2023/07/20 04:14:23;;;;;;;;;;;15.30;99.90;;;;;;5141869;27;19908;-61
2023/07/20 04:16:48;;;;;;;;;;;15.30;99.90;;;;;;5142155;27;19912;-61
2023/07/20 04:19:14;;;;;;;;;;;14.50;99.90;;;;;;5141810;27;19967;-61
2023/07/20 04:21:43;;;;;;;;;;;15.20;99.90;;;;;;5141676;27;19911;-61
2023/07/20 04:24:09;;;;;;;;;;;15.20;99.90;;;;;;5141369;27;19956;-61
2023/07/20 04:26:35;;;;;;;;;;;15.20;99.90;;;;;;5142065;27;19915;-61
2023/07/20 04:29:01;;;;;;;;;;;15.20;99.90;;;;;;5141687;27;19908;-61
2023/07/20 04:31:26;;;;;;;;;;;15.20;99.90;;;;;;5142023;27;19908;-61
2023/07/20 04:33:52;;;;;;;;;;;15.20;99.90;;;;;;5141515;27;19990;-61
2023/07/20 04:36:19;;;;;;;;;;;15.10;99.90;;;;;;5141325;27;19907;-61
2023/07/20 04:38:45;;;;;;;;;;;15.20;99.90;;;;;;5141200;27;19911;-61
2023/07/20 04:41:12;;;;;;;;;;;15.20;99.90;;;;;;5141434;27;19908;-61
2023/07/20 04:43:42;;;;;;;;;;;15.10;99.90;;;;;;5140242;27;19915;-61
2023/07/20 04:46:08;;;;;;;;;;;15.10;99.90;;;;;;5141348;27;19911;-61
2023/07/20 04:48:34;;;;;;;;;;;15.00;99.90;;;;;;5141666;27;19936;-61
2023/07/20 04:51:00;;;;;;;;;;;15.00;99.90;;;;;;5141138;27;19908;-61
2023/07/20 04:53:25;;;;;;;;;;;15.10;99.90;;;;;;5141320;27;19907;-61
2023/07/20 04:55:51;;;;;;;;;;;15.10;99.90;;;;;;5141094;27;19914;-61
2023/07/20 04:58:18;;;;;;;;;;;15.10;99.90;;;;;;5141057;27;19916;-61
2023/07/20 05:00:44;;;;;;;;;;;15.10;99.90;;;;;;5140914;27;20324;-61
2023/07/20 05:03:09;;;;;;;;;;;15.10;99.90;;;;;;5141185;27;19960;-61
2023/07/20 05:05:35;;;;;;;;;;;15.10;99.90;;;;;;5140770;27;20331;-61
2023/07/20 05:08:00;;;;;;;;;;;15.10;99.90;;;;;;5140622;27;19907;-61
2023/07/20 05:10:26;;;;;;;;;;;15.10;99.90;;;;;;5140887;27;19943;-61
2023/07/20 05:12:52;;;;;;;;;;;15.10;99.90;;;;;;5140899;27;19949;-61
2023/07/20 05:15:17;;;;;;;;;;;15.20;99.90;;;;;;5140607;27;19908;-61
2023/07/20 05:17:43;;;;;;;;;;;15.20;99.90;;;;;;5140812;27;20053;-61
2023/07/20 05:20:15;;;;;;;;;;;15.10;99.90;;;;;;5140237;27;19923;-61
2023/07/20 05:22:40;;;;;;;;;;;15.20;99.90;;;;;;5140483;27;20003;-61
2023/07/20 05:25:09;;;;;;;;;;;15.20;99.90;;;;;;5140430;27;19963;-61
2023/07/20 05:27:39;;;;;;;;;;;15.20;99.90;;;;;;5140352;27;20320;-62
2023/07/20 05:30:05;;;;;;;;;;;15.30;99.90;;;;;;5140482;27;19946;-61
2023/07/20 05:32:30;;;;;;;;;;;15.30;99.90;;;;;;5140098;27;19994;-61
2023/07/20 05:34:56;;;;;;;;;;;15.30;99.90;;;;;;5140118;27;19943;-61
2023/07/20 05:37:22;;;;;;;;;;;15.30;99.90;;;;;;5140081;27;19919;-61
2023/07/20 05:39:48;;;;;;;;;;;15.40;99.90;;;;;;5140224;27;19956;-61
2023/07/20 05:42:13;;;;;;;;;;;15.40;99.90;;;;;;5140182;27;19908;-61
2023/07/20 05:44:39;;;;;;;;;;;15.40;99.90;;;;;;5139857;27;19911;-61
2023/07/20 05:47:05;;;;;;;;;;;15.50;99.90;;;;;;5140029;27;19913;-61
2023/07/20 05:49:31;;;;;;;;;;;15.50;99.90;;;;;;5139767;27;19907;-61
2023/07/20 05:51:57;;;;;;;;;;;15.60;99.90;;;;;;5140351;27;20022;-61
2023/07/20 05:54:25;;;;;;;;;;;15.60;99.90;;;;;;5139636;27;19908;-61
2023/07/20 05:56:51;;;;;;;;;;;15.70;99.90;;;;;;5139888;27;19907;-61
2023/07/20 05:59:17;;;;;;;;;;;15.70;99.90;;;;;;5139865;27;19915;-61
2023/07/20 06:01:43;;;;;;;;;;;15.80;99.90;;;;;;5140046;27;19950;-61
2023/07/20 06:04:09;;;;;;;;;;;15.80;99.90;;;;;;5139804;27;19907;-61
2023/07/20 06:06:35;;;;;;;;;;;15.80;99.90;;;;;;5139417;27;20002;-61
2023/07/20 06:09:04;;;;;;;;;;;15.80;99.90;;;;;;5139682;27;19968;-61
2023/07/20 06:11:30;;;;;;;;;;;15.80;99.90;;;;;;5139101;27;19915;-61
2023/07/20 06:13:56;;;;;;;;;;;15.90;99.90;;;;;;5139284;27;20031;-61
2023/07/20 06:16:22;;;;;;;;;;;15.90;99.90;;;;;;5139833;27;19911;-61
2023/07/20 06:18:48;;;;;;;;;;;16.00;99.90;;;;;;5139158;27;19919;-61
2023/07/20 06:21:14;;;;;;;;;;;16.00;99.90;;;;;;5139198;27;19915;-61
2023/07/20 06:23:40;;;;;;;;;;;16.10;99.90;;;;;;5139470;27;19908;-61
2023/07/20 06:26:07;;;;;;;;;;;16.20;99.90;;;;;;5138978;27;19953;-61
2023/07/20 06:28:33;;;;;;;;;;;16.20;99.90;;;;;;5139105;27;19907;-61
2023/07/20 06:31:04;;;;;;;;;;;16.30;99.90;;;;;;5139273;27;19914;-61
2023/07/20 06:33:30;;;;;;;;;;;16.40;99.90;;;;;;5139186;27;20255;-61
2023/07/20 06:35:56;;;;;;;;;;;16.50;99.90;;;;;;5139446;27;19918;-61
2023/07/20 06:38:23;;;;;;;;;;;16.60;99.90;;;;;;5138912;27;19930;-61
2023/07/20 06:40:49;;;;;;;;;;;16.60;99.90;;;;;;5138920;27;19907;-61
2023/07/20 06:43:15;;;;;;;;;;;16.70;99.90;;;;;;5139007;27;19918;-61
2023/07/20 06:45:41;;;;;;;;;;;16.80;99.90;;;;;;5138766;27;19926;-61
2023/07/20 06:48:07;;;;;;;;;;;16.80;99.90;;;;;;5139078;27;19908;-61
2023/07/20 06:50:32;;;;;;;;;;;16.90;99.90;;;;;;5139069;27;20427;-61
2023/07/20 06:52:58;;;;;;;;;;;17.00;99.90;;;;;;5138565;27;20010;-62
2023/07/20 06:55:24;;;;;;;;;;;17.00;99.90;;;;;;5139024;27;19907;-61
2023/07/20 06:57:50;;;;;;;;;;;17.10;99.90;;;;;;5139157;27;19911;-61
2023/07/20 07:00:16;;;;;;;;;;;17.20;99.90;;;;;;5138508;27;20400;-61
2023/07/20 07:02:42;;;;;;;;;;;17.20;99.90;;;;;;5139135;28;19908;-61
2023/07/20 07:05:07;;;;;;;;;;;17.30;99.90;;;;;;5138797;28;19918;-61
2023/07/20 07:07:33;;;;;;;;;;;17.40;99.90;;;;;;5141033;27;19914;-61
2023/07/20 07:09:59;;;;;;;;;;;17.50;99.90;;;;;;5143033;27;19911;-62
2023/07/20 07:12:25;;;;;;;;;;;17.60;99.90;;;;;;5124344;27;19907;-62
2023/07/20 07:14:51;;;;;;;;;;;17.70;99.90;;;;;;5142832;27;19914;-61
2023/07/20 07:17:16;;;;;;;;;;;17.80;99.90;;;;;;5142995;27;19907;-61
2023/07/20 07:19:42;;;;;;;;;;;17.80;99.90;;;;;;5142658;27;20423;-61
2023/07/20 07:22:08;;;;;;;;;;;17.80;99.90;;;;;;5143263;27;20327;-61
2023/07/20 07:24:34;;;;;;;;;;;17.90;99.90;;;;;;5142492;27;20301;-62
2023/07/20 07:27:00;;;;;;;;;;;17.90;99.90;;;;;;5142867;27;19907;-61
2023/07/20 07:29:25;;;;;;;;;;;17.90;99.90;;;;;;5142705;27;19959;-61
2023/07/20 07:31:51;;;;;;;;;;;18.00;99.90;;;;;;5142765;27;19986;-61
2023/07/20 07:34:17;;;;;;;;;;;18.10;99.90;;;;;;5142643;27;19907;-61
2023/07/20 07:36:43;;;;;;;;;;;18.10;99.90;;;;;;5142569;27;19947;-62
2023/07/20 07:39:09;;;;;;;;;;;18.10;99.90;;;;;;5142753;27;19908;-62
2023/07/20 07:41:35;;;;;;;;;;;18.10;99.90;;;;;;5142634;27;19952;-62
2023/07/20 07:44:00;;;;;;;;;;;18.10;99.90;;;;;;5142634;27;19908;-62
2023/07/20 07:46:26;;;;;;;;;;;18.20;99.90;;;;;;5142430;27;19991;-62
2023/07/20 07:48:52;;;;;;;;;;;18.30;99.90;;;;;;5142580;27;19907;-61
2023/07/20 07:51:18;;;;;;;;;;;18.40;99.90;;;;;;5142037;27;20358;-61
2023/07/20 07:53:45;;;;;;;;;;;18.40;99.90;;;;;;5142398;27;19912;-62
2023/07/20 07:56:11;;;;;;;;;;;18.50;99.90;;;;;;5142057;27;20299;-62
2023/07/20 07:58:37;;;;;;;;;;;18.50;99.90;;;;;;5142391;27;19968;-61
2023/07/20 08:01:02;;;;;;;;;;;18.60;99.90;;;;;;5141870;27;19939;-62
2023/07/20 08:03:28;;;;;;;;;;;18.70;99.90;;;;;;5142497;27;20300;-63
2023/07/20 08:05:55;;;;;;;;;;;18.80;99.90;;;;;;5141823;27;20029;-62
2023/07/20 08:08:21;;;;;;;;;;;18.90;99.90;;;;;;5142061;27;19907;-62
2023/07/20 08:10:47;;;;;;;;;;;18.90;99.90;;;;;;5141407;27;19911;-62
2023/07/20 08:13:12;;;;;;;;;;;19.00;99.90;;;;;;5123429;27;19930;-56
2023/07/20 08:15:38;;;;;;;;;;;19.00;99.90;;;;;;5141846;27;19907;-61
2023/07/20 08:18:04;;;;;;;;;;;19.20;99.90;;;;;;5141510;27;19951;-61
2023/07/20 08:20:29;;;;;;;;;;;19.30;99.90;;;;;;5141697;27;19949;-60
2023/07/20 08:22:55;;;;;;;;;;;19.30;99.90;;;;;;5141722;27;19908;-60
2023/07/20 08:25:21;;;;;;;;;;;19.20;99.90;;;;;;5141570;27;19912;-61
2023/07/20 08:27:47;;;;;;;;;;;19.20;99.90;;;;;;5141600;27;19975;-62
2023/07/20 08:30:13;;;;;;;;;;;19.20;99.90;;;;;;5141251;27;19914;-62
2023/07/20 08:32:39;;;;;;;;;;;19.20;99.90;;;;;;5141338;27;19914;-62
2023/07/20 08:35:05;;;;;;;;;;;19.10;99.90;;;;;;5141397;27;19911;-61
2023/07/20 08:37:31;;;;;;;;;;;19.20;99.90;;;;;;5141210;27;20264;-61
2023/07/20 08:39:57;;;;;;;;;;;19.40;99.90;;;;;;5141471;27;19998;-62
2023/07/20 08:42:23;;;;;;;;;;;19.50;99.90;;;;;;5141441;27;19971;-62
2023/07/20 08:44:49;;;;;;;;;;;19.60;99.90;;;;;;5132034;27;19911;-61
2023/07/20 08:47:16;;;;;;;;;;;19.70;99.90;;;;;;5119697;28;19919;-61
2023/07/20 08:49:42;;;;;;;;;;;19.70;99.90;;;;;;5120209;28;19951;-61
2023/07/20 08:52:08;;;;;;;;;;;19.80;99.90;;;;;;5120088;28;20397;-61
2023/07/20 08:54:34;;;;;;;;;;;19.90;99.90;;;;;;5120119;28;19934;-61
2023/07/20 08:57:04;;;;;;;;;;;20.10;99.90;;;;;;5120351;28;19915;-61
2023/07/20 08:59:30;;;;;;;;;;;20.20;99.90;;;;;;5120424;28;20355;-61
2023/07/20 09:01:59;;;;;;;;;;;20.20;99.90;;;;;;5120297;28;19968;-62
2023/07/20 09:04:24;;;;;;;;;;;20.30;99.90;;;;;;5120002;28;19911;-61
2023/07/20 09:06:50;;;;;;;;;;;20.30;99.90;;;;;;5119997;28;20367;-61
2023/07/20 09:09:16;;;;;;;;;;;20.00;99.90;;;;;;5120109;28;20610;-61
2023/07/20 09:11:42;;;;;;;;;;;19.70;99.90;;;;;;5118508;28;19914;-61
2023/07/20 09:14:08;;;;;;;;;;;19.40;99.90;;;;;;5118913;28;20010;-61
2023/07/20 09:16:47;;;;;;;;;;;19.30;99.90;;;;;;5119493;28;19911;-61
2023/07/20 09:19:14;;;;;;;;;;;19.20;99.90;;;;;;5119790;28;19926;-62
2023/07/20 09:21:40;;;;;;;;;;;18.90;99.90;;;;;;5119713;28;20564;-61
2023/07/20 09:24:06;;;;;;;;;;;18.60;99.90;;;;;;5119728;28;20317;-61
2023/07/20 09:26:40;;;;;;;;;;;18.60;99.90;;;;;;5120088;28;19918;-61
2023/07/20 09:29:07;;;;;;;;;;;18.70;99.90;;;;;;5119679;28;19907;-62
2023/07/20 09:31:33;;;;;;;;;;;18.80;99.90;;;;;;5119281;28;19907;-61
2023/07/20 09:33:58;;;;;;;;;;;18.50;99.90;;;;;;5120131;28;19907;-61
2023/07/20 09:36:26;;;;;;;;;;;18.50;99.90;;;;;;5119287;28;19980;-61
2023/07/20 09:38:51;;;;;;;;;;;18.80;99.90;;;;;;5119215;28;19908;-61
2023/07/20 09:41:18;;;;;;;;;;;19.00;99.90;;;;;;5119683;28;19914;-62
2023/07/20 09:43:45;;;;;;;;;;;19.00;99.90;;;;;;5119191;28;20378;-61
2023/07/20 09:46:10;;;;;;;;;;;19.20;99.90;;;;;;5119307;28;19912;-62
2023/07/20 09:48:36;;;;;;;;;;;19.10;99.90;;;;;;5119616;28;19914;-61
2023/07/20 09:51:02;;;;;;;;;;;19.00;99.90;;;;;;5119850;28;20347;-61
2023/07/20 09:53:28;;;;;;;;;;;19.40;99.90;;;;;;5119303;28;19930;-62
2023/07/20 09:55:54;;;;;;;;;;;19.90;99.90;;;;;;5119239;28;19907;-62
2023/07/20 09:58:20;;;;;;;;;;;20.20;99.90;;;;;;5119169;28;19907;-61
2023/07/20 10:00:50;;;;;;;;;;;20.40;99.90;;;;;;5119522;28;19915;-62
2023/07/20 10:03:22;;;;;;;;;;;20.50;99.90;;;;;;5119237;28;19908;-62
2023/07/20 10:05:52;;;;;;;;;;;20.50;99.90;;;;;;5119267;28;19912;-62
2023/07/20 10:08:18;;;;;;;;;;;20.00;99.90;;;;;;5119602;28;19908;-62
2023/07/20 10:10:45;;;;;;;;;;;19.90;99.90;;;;;;5119209;28;19908;-62
2023/07/20 10:13:16;;;;;;;;;;;20.00;99.90;;;;;;5119045;28;19922;-62
2023/07/20 10:16:08;;;;;;;;;;;20.50;99.90;;;;;;5119357;28;19908;-62
2023/07/20 10:18:50;;;;;;;;;;;21.00;99.90;;;;;;5113619;28;20067;-62
2023/07/20 10:21:17;;;;;;;;;;;21.30;99.90;;;;;;5119277;28;19907;-62
2023/07/20 10:23:43;;;;;;;;;;;20.80;99.90;;;;;;5118800;28;19908;-62
2023/07/20 10:26:09;;;;;;;;;;;21.10;99.90;;;;;;5118645;28;19911;-62
2023/07/20 10:28:35;;;;;;;;;;;21.70;99.90;;;;;;5118528;28;19916;-61
2023/07/20 10:31:02;;;;;;;;;;;22.60;99.90;;;;;;5118993;28;19930;-61
2023/07/20 10:33:28;;;;;;;;;;;23.50;99.90;;;;;;5118450;28;19998;-62
2023/07/20 10:36:00;;;;;;;;;;;23.90;99.00;;;;;;5118647;28;19946;-62
2023/07/20 10:38:38;;;;;;;;;;;23.80;99.90;;;;;;5118378;28;19955;-62
2023/07/20 10:41:04;;;;;;;;;;;23.90;99.90;;;;;;5118672;28;20006;-62
2023/07/20 10:43:30;;;;;;;;;;;23.50;93.90;;;;;;5118545;28;19962;-62
2023/07/20 10:45:56;;;;;;;;;;;22.60;99.80;;;;;;5118485;28;19919;-61
2023/07/20 10:48:22;;;;;;;;;;;21.80;98.80;;;;;;5118362;28;19908;-61
2023/07/20 10:51:07;;;;;;;;;;;21.70;99.90;;;;;;5118256;28;19914;-61
2023/07/20 10:53:32;;;;;;;;;;;21.40;99.90;;;;;;5118299;28;20271;-61
2023/07/20 10:56:19;;;;;;;;;;;21.70;99.90;;;;;;5118723;28;19915;-61
2023/07/20 10:58:44;;;;;;;;;;;22.10;99.90;;;;;;5118484;28;19908;-62
2023/07/20 11:01:13;;;;;;;;;;;22.40;99.70;;;;;;5118689;28;19908;-61
2023/07/20 11:03:40;;;;;;;;;;;22.70;99.50;;;;;;5118171;28;19915;-62
2023/07/20 11:06:24;;;;;;;;;;;22.90;99.90;;;;;;5118281;28;19961;-62
2023/07/20 11:09:10;;;;;;;;;;;22.70;94.60;;;;;;5118233;28;19993;-62
2023/07/20 11:11:37;;;;;;;;;;;22.40;99.90;;;;;;5118221;28;20002;-61
2023/07/20 11:14:04;;;;;;;;;;;22.30;97.20;;;;;;5100155;28;20332;-62
2023/07/20 11:16:43;;;;;;;;;;;22.60;99.90;;;;;;5118275;28;19908;-62
2023/07/20 11:19:16;;;;;;;;;;;23.30;96.40;;;;;;5117829;28;19926;-62
2023/07/20 11:21:42;;;;;;;;;;;23.80;98.50;;;;;;5118154;28;20435;-62
2023/07/20 11:24:09;;;;;;;;;;;24.70;90.60;;;;;;5117606;28;19969;-62
2023/07/20 11:26:41;;;;;;;;;;;24.70;92.30;;;;;;5117911;28;20015;-62
2023/07/20 11:29:07;;;;;;;;;;;24.20;86.60;;;;;;5117886;28;19908;-61
2023/07/20 11:31:39;;;;;;;;;;;23.40;92.90;;;;;;5118090;28;19908;-62
2023/07/20 11:34:05;;;;;;;;;;;23.20;94.40;;;;;;5117944;28;19915;-62
2023/07/20 11:36:31;;;;;;;;;;;23.00;94.50;;;;;;5117772;28;20442;-62
2023/07/20 11:38:58;;;;;;;;;;;22.70;96.40;;;;;;5118348;28;19947;-62
2023/07/20 11:41:24;;;;;;;;;;;23.10;96.90;;;;;;5117968;28;19907;-62
2023/07/20 11:43:50;;;;;;;;;;;23.60;92.60;;;;;;5100249;28;20312;-62
2023/07/20 11:46:16;;;;;;;;;;;23.10;96.30;;;;;;5117844;28;20660;-62
2023/07/20 11:48:41;;;;;;;;;;;23.80;95.60;;;;;;5117719;28;19915;-62
2023/07/20 11:51:13;;;;;;;;;;;23.90;91.60;;;;;;5117555;28;19908;-62
2023/07/20 11:53:39;;;;;;;;;;;24.60;97.80;;;;;;5120015;28;20002;-62
2023/07/20 11:56:04;;;;;;;;;;;24.80;91.00;;;;;;5121738;28;19939;-62
2023/07/20 11:58:30;;;;;;;;;;;24.80;78.60;;;;;;5121616;28;19908;-62
2023/07/20 12:00:56;;;;;;;;;;;24.80;84.30;;;;;;5122005;28;20289;-62
2023/07/20 12:03:21;;;;;;;;;;;24.80;79.70;;;;;;5121419;28;19915;-62
2023/07/20 12:05:47;;;;;;;;;;;25.00;83.80;;;;;;5121105;28;19958;-62
2023/07/20 12:08:12;;;;;;;;;;;24.40;80.60;;;;;;5121315;28;19957;-62
2023/07/20 12:10:44;;;;;;;;;;;24.40;90.30;;;;;;5121844;28;19939;-62
2023/07/20 12:13:11;;;;;;;;;;;23.90;81.00;;;;;;5121484;28;19943;-62
2023/07/20 12:15:37;;;;;;;;;;;23.30;90.50;;;;;;5120974;28;19915;-62
2023/07/20 12:18:03;;;;;;;;;;;23.30;92.80;;;;;;5121006;28;19908;-62
2023/07/20 12:20:32;;;;;;;;;;;23.80;94.00;;;;;;5121566;28;19919;-62
2023/07/20 12:22:59;;;;;;;;;;;24.00;93.80;;;;;;5121326;28;19908;-62
2023/07/20 12:25:34;;;;;;;;;;;24.00;90.80;;;;;;5120769;28;19968;-62
2023/07/20 12:28:02;;;;;;;;;;;23.50;95.10;;;;;;5121224;28;20282;-62
2023/07/20 12:30:27;;;;;;;;;;;23.20;94.10;;;;;;5121400;28;19908;-62
2023/07/20 12:32:53;;;;;;;;;;;22.90;96.20;;;;;;5121186;28;19908;-62
2023/07/20 12:35:19;;;;;;;;;;;23.00;96.90;;;;;;5121213;28;19907;-62
2023/07/20 12:37:48;;;;;;;;;;;23.30;94.20;;;;;;5121023;28;19911;-62
2023/07/20 12:40:14;;;;;;;;;;;23.80;95.50;;;;;;5121150;28;19911;-62
2023/07/20 12:42:40;;;;;;;;;;;24.60;93.10;;;;;;5120938;28;20014;-62
2023/07/20 12:45:06;;;;;;;;;;;25.20;89.50;;;;;;5121062;28;19926;-62
2023/07/20 12:47:31;;;;;;;;;;;25.50;83.20;;;;;;5120345;28;20299;-62
2023/07/20 12:49:57;;;;;;;;;;;25.20;86.70;;;;;;5120512;28;19908;-62
2023/07/20 12:52:23;;;;;;;;;;;25.20;87.40;;;;;;5120846;28;19912;-62
2023/07/20 12:54:48;;;;;;;;;;;24.40;88.40;;;;;;5120279;28;19915;-62
2023/07/20 12:57:14;;;;;;;;;;;24.40;91.40;;;;;;5120445;28;19912;-62
2023/07/20 12:59:40;;;;;;;;;;;24.50;88.30;;;;;;5120534;28;19908;-62
2023/07/20 13:02:06;;;;;;;;;;;24.40;89.70;;;;;;5120513;28;19915;-62
2023/07/20 13:04:32;;;;;;;;;;;24.00;87.60;;;;;;5118819;28;19915;-62
2023/07/20 13:06:58;;;;;;;;;;;24.00;91.90;;;;;;5120136;28;20282;-62
2023/07/20 13:09:25;;;;;;;;;;;24.50;89.60;;;;;;5119990;28;19908;-62
2023/07/20 13:11:51;;;;;;;;;;;24.90;84.00;;;;;;5120003;28;19930;-62
2023/07/20 13:14:16;;;;;;;;;;;25.00;84.40;;;;;;5120236;28;19908;-62
2023/07/20 13:16:42;;;;;;;;;;;25.20;85.20;;;;;;5119917;28;19915;-62
2023/07/20 13:19:08;;;;;;;;;;;25.40;88.10;;;;;;5119853;28;19924;-62
2023/07/20 13:21:34;;;;;;;;;;;25.20;76.40;;;;;;5119982;28;20431;-62
2023/07/20 13:23:59;;;;;;;;;;;24.60;79.90;;;;;;5119656;28;19908;-62
2023/07/20 13:26:25;;;;;;;;;;;24.50;78.70;;;;;;5119912;28;19969;-62
2023/07/20 13:28:51;;;;;;;;;;;24.00;81.00;;;;;;5120052;28;19969;-62
2023/07/20 13:31:17;;;;;;;;;;;23.20;89.60;;;;;;5119616;28;19908;-62
2023/07/20 13:33:51;;;;;;;;;;;23.20;92.30;;;;;;5118600;27;20301;-62
2023/07/20 13:36:16;;;;;;;;;;;23.60;91.90;;;;;;5118996;28;19992;-62
2023/07/20 13:38:54;;;;;;;;;;;23.10;90.40;;;;;;5119262;28;20021;-62
2023/07/20 13:41:20;;;;;;;;;;;23.60;92.50;;;;;;5119561;28;19915;-62
2023/07/20 13:43:45;;;;;;;;;;;23.30;91.90;;;;;;5119501;27;20282;-62
2023/07/20 13:46:11;;;;;;;;;;;23.50;92.30;;;;;;5119298;28;19919;-62
2023/07/20 13:48:37;;;;;;;;;;;24.10;91.20;;;;;;5119654;28;19908;-62
2023/07/20 13:51:03;;;;;;;;;;;24.50;90.00;;;;;;5119635;28;19950;-62
2023/07/20 13:53:28;;;;;;;;;;;24.80;90.10;;;;;;5101406;28;19907;-62
2023/07/20 13:55:54;;;;;;;;;;;24.70;85.10;;;;;;5119171;28;19914;-62
2023/07/20 13:58:20;;;;;;;;;;;24.80;85.10;;;;;;5119378;28;19907;-62
2023/07/20 14:00:46;;;;;;;;;;;25.20;81.70;;;;;;5119487;28;19922;-62
2023/07/20 14:03:12;;;;;;;;;;;24.70;84.10;;;;;;5117063;28;20268;-62
2023/07/20 14:05:37;;;;;;;;;;;24.70;87.10;;;;;;5119043;28;19911;-62
2023/07/20 14:08:03;;;;;;;;;;;24.60;87.50;;;;;;5119169;28;19946;-62
2023/07/20 14:10:29;;;;;;;;;;;24.70;84.60;;;;;;5118981;28;19930;-62
2023/07/20 14:12:55;;;;;;;;;;;23.60;87.90;;;;;;5119355;28;19912;-62
2023/07/20 14:15:20;;;;;;;;;;;23.00;92.50;;;;;;5118918;28;19908;-61